Portada
METAR-TAF:

METAR-TAF

Aeroports :

Belleville, Illinois, Estats Units d'Amèrica

latitud: 38-33N, longitud: 089-51W, altitud: 140 m

Observació

L'informe es va fer fa 42 minuts, a les 10:56 UTC
Vent 12 kt del Nord-Oest
Temperatura -11°C
Humitat 66%
Pressió 1035 hPa
Visibilitat: 16.1 km
Cel clar

METAR: KBLV 121056Z AUTO 32012KT 10SM CLR M11/M16 A3056 RMK AO2 SLP360 T11091160 $

Hora: 05:38 (11:38 UTC)

Pronòstic

L'informe es va fer fa 3 hores i 38 minuts, a les 08:00 UTC
Pronòstic vàlid del 12 a les 08 UTC al 13 a les 14 UTC
Vent 15 kt del Nord
Visibilitat 10 km o més
Escasses núvols a una alçada de 5000 ft
Evolucionant progressivament
l' 13 a les 00 UTC al 13 a les 01 UTC
Vent 6 kt amb direcció variable
Visibilitat 10 km o més
Cel clar

TAF: KBLV 120800Z 1208/1314 35015KT 9999 FEW050 QNH3049INS BECMG 1300/1301 VRB06KT 9999 SKC QNH3025INS TXM05/1221Z TNM13/1212Z

Observacions i pronòstics meteorològics de més de 4000 aeroports (METAR i TAF).

Les estacions disponibles són els punts grocs i vermells al mapa.

Posi el ratolí al punt desitjat per veure el nom de l'estació.

Feu clic per veure les observacions i els pronòstics meteorològics.

Per canviar el mapa: feu clic els botons verds amb una creu de color negre per apropar; al botó verd amb un guió per allunyar la imatge; o en les fletxes verdes per a mapes adjacents.


METAR-TAF: